createdAt,value
2022-07-25T00:00:33.263Z,23.90
2022-07-25T00:03:03.053Z,23.80
2022-07-25T00:05:35.851Z,23.80
2022-07-25T00:08:06.139Z,23.80
2022-07-25T00:10:34.580Z,23.70
2022-07-25T00:13:02.346Z,23.70
2022-07-25T00:15:29.763Z,23.70
2022-07-25T00:17:57.168Z,23.70
2022-07-25T00:20:24.637Z,23.70
2022-07-25T00:22:52.234Z,23.60
2022-07-25T00:25:19.564Z,23.60
2022-07-25T00:27:46.895Z,23.60
2022-07-25T00:30:14.405Z,23.60
2022-07-25T00:32:41.823Z,23.60
2022-07-25T00:35:09.510Z,23.60
2022-07-25T00:37:36.891Z,23.60
2022-07-25T00:40:04.426Z,23.50
2022-07-25T00:42:32.418Z,23.50
2022-07-25T00:45:00.196Z,23.50
2022-07-25T00:47:27.615Z,23.50
2022-07-25T00:49:54.956Z,23.50
2022-07-25T00:52:23.885Z,23.50
2022-07-25T00:54:51.392Z,23.50
2022-07-25T00:57:18.735Z,23.40
2022-07-25T00:59:46.100Z,23.40
2022-07-25T01:02:13.556Z,23.40
2022-07-25T01:04:40.956Z,23.30
2022-07-25T01:07:08.277Z,23.40
2022-07-25T01:09:35.722Z,23.20
2022-07-25T01:12:03.168Z,23.20
2022-07-25T01:14:39.017Z,23.10
2022-07-25T01:17:06.323Z,23.00
2022-07-25T01:19:33.636Z,23.00
2022-07-25T01:22:01.071Z,23.00
2022-07-25T01:24:28.832Z,22.90
2022-07-25T01:26:56.180Z,22.90
2022-07-25T01:29:23.511Z,22.90
2022-07-25T01:31:50.872Z,22.80
2022-07-25T01:34:18.205Z,22.80
2022-07-25T01:36:45.544Z,22.70
2022-07-25T01:39:12.972Z,22.70
2022-07-25T01:41:40.315Z,22.70
2022-07-25T01:44:08.046Z,22.70
2022-07-25T01:46:35.819Z,22.70
2022-07-25T01:49:03.397Z,22.70
2022-07-25T01:51:30.910Z,22.60
2022-07-25T01:53:58.240Z,22.60
2022-07-25T01:56:25.576Z,22.70
2022-07-25T01:58:52.968Z,22.60
2022-07-25T02:01:21.771Z,22.60
2022-07-25T02:03:49.543Z,22.70
2022-07-25T02:06:17.746Z,22.60
2022-07-25T02:08:45.083Z,22.60
2022-07-25T02:11:12.411Z,22.50
2022-07-25T02:13:39.785Z,22.50
2022-07-25T02:16:07.098Z,22.50
2022-07-25T02:18:34.509Z,22.50
2022-07-25T02:21:01.879Z,22.40
2022-07-25T02:23:29.218Z,22.40
2022-07-25T02:25:56.540Z,22.30
2022-07-25T02:28:23.905Z,22.30
2022-07-25T02:30:51.285Z,22.20
2022-07-25T02:33:18.604Z,22.20
2022-07-25T02:35:46.007Z,22.20
2022-07-25T02:38:19.531Z,22.10
2022-07-25T02:40:47.905Z,22.10
2022-07-25T02:43:15.252Z,22.10
2022-07-25T02:45:43.137Z,22.10
2022-07-25T02:48:10.483Z,22.10
2022-07-25T02:50:38.048Z,22.10
2022-07-25T02:53:05.521Z,22.00
2022-07-25T02:55:32.899Z,22.00
2022-07-25T02:58:00.294Z,21.90
2022-07-25T03:00:27.751Z,21.90
2022-07-25T03:02:55.716Z,21.90
2022-07-25T03:05:23.070Z,21.90
2022-07-25T03:07:50.441Z,21.90
2022-07-25T03:10:17.887Z,21.90
2022-07-25T03:12:45.322Z,21.80
2022-07-25T03:15:12.959Z,21.80
2022-07-25T03:17:40.379Z,21.80
2022-07-25T03:20:08.273Z,21.80
2022-07-25T03:22:35.706Z,21.80
2022-07-25T03:25:03.149Z,21.80
2022-07-25T03:27:30.910Z,21.80
2022-07-25T03:29:58.535Z,21.70
2022-07-25T03:32:26.003Z,21.70
2022-07-25T03:34:53.422Z,21.70
2022-07-25T03:37:22.140Z,21.70
2022-07-25T03:39:49.588Z,21.70
2022-07-25T03:42:17.015Z,21.70
2022-07-25T03:44:44.345Z,21.70
2022-07-25T03:47:20.614Z,21.70
2022-07-25T03:49:48.273Z,21.70
2022-07-25T03:52:15.644Z,21.70
2022-07-25T03:54:43.042Z,21.70
2022-07-25T03:57:11.736Z,21.70
2022-07-25T03:59:39.373Z,21.70
2022-07-25T04:02:06.800Z,21.80
2022-07-25T04:04:34.144Z,21.90
2022-07-25T04:07:01.497Z,22.20
2022-07-25T04:09:31.053Z,22.40
2022-07-25T04:12:00.847Z,22.60
2022-07-25T04:14:28.221Z,22.70
2022-07-25T04:16:55.651Z,22.80
2022-07-25T04:19:23.087Z,22.80
2022-07-25T04:21:53.553Z,22.80
2022-07-25T04:24:20.979Z,22.80
2022-07-25T04:26:48.329Z,22.80
2022-07-25T04:29:15.928Z,22.70
2022-07-25T04:31:43.321Z,22.70
2022-07-25T04:34:10.699Z,22.70
2022-07-25T04:36:38.090Z,22.70
2022-07-25T04:39:05.453Z,22.80
2022-07-25T04:41:32.806Z,22.80
2022-07-25T04:44:00.185Z,22.70
2022-07-25T04:46:27.536Z,22.60
2022-07-25T04:48:55.032Z,22.50
2022-07-25T04:51:22.437Z,22.40
2022-07-25T04:53:49.845Z,22.40
2022-07-25T04:56:17.270Z,22.30
2022-07-25T04:58:44.724Z,22.30
2022-07-25T05:01:12.256Z,22.30
2022-07-25T05:03:39.654Z,22.30
2022-07-25T05:06:07.387Z,22.30
2022-07-25T05:08:34.781Z,22.20
2022-07-25T05:11:02.281Z,22.20
2022-07-25T05:13:29.613Z,22.20
2022-07-25T05:15:56.994Z,22.20
2022-07-25T05:18:24.402Z,22.20
2022-07-25T05:20:51.752Z,22.20
2022-07-25T05:23:19.118Z,22.20
2022-07-25T05:25:46.623Z,22.20
2022-07-25T05:28:14.984Z,22.20
2022-07-25T05:30:42.378Z,22.20
2022-07-25T05:33:09.770Z,22.20
2022-07-25T05:35:37.152Z,22.20
2022-07-25T05:38:04.793Z,22.30
2022-07-25T05:40:32.190Z,22.30
2022-07-25T05:43:03.176Z,22.40
2022-07-25T05:45:31.468Z,22.40
2022-07-25T05:47:58.908Z,22.50
2022-07-25T05:50:26.279Z,22.50
2022-07-25T05:52:53.767Z,22.60
2022-07-25T05:55:21.148Z,22.60
2022-07-25T05:57:48.533Z,22.70
2022-07-25T06:00:16.137Z,22.80
2022-07-25T06:02:43.628Z,22.80
2022-07-25T06:05:11.045Z,22.90
2022-07-25T06:07:38.484Z,23.00
2022-07-25T06:10:07.103Z,23.00
2022-07-25T06:12:36.725Z,23.10
2022-07-25T06:15:05.620Z,23.30
2022-07-25T06:17:33.047Z,23.60
2022-07-25T06:20:00.693Z,23.90
2022-07-25T06:22:28.030Z,24.10
2022-07-25T06:24:55.448Z,24.20
2022-07-25T06:27:27.406Z,24.50
2022-07-25T06:29:56.730Z,24.60
2022-07-25T06:32:24.295Z,24.70
2022-07-25T06:34:51.683Z,24.70
2022-07-25T06:37:19.089Z,24.80
2022-07-25T06:39:46.457Z,24.80
2022-07-25T06:42:13.894Z,24.90
2022-07-25T06:44:41.289Z,24.90
2022-07-25T06:47:12.711Z,24.90
2022-07-25T06:49:41.129Z,24.90
2022-07-25T06:52:08.510Z,25.00
2022-07-25T06:54:35.885Z,25.00
2022-07-25T06:57:03.768Z,25.00
2022-07-25T06:59:31.553Z,25.10
2022-07-25T07:01:59.036Z,25.20
2022-07-25T07:04:26.356Z,25.20
2022-07-25T07:06:53.777Z,25.20
2022-07-25T07:09:21.212Z,25.30
2022-07-25T07:11:48.568Z,25.40
2022-07-25T07:14:16.000Z,25.40
2022-07-25T07:16:43.454Z,25.40
2022-07-25T07:19:11.152Z,25.50
2022-07-25T07:21:38.503Z,25.60
2022-07-25T07:24:23.694Z,25.60
2022-07-25T07:26:52.972Z,25.70
2022-07-25T07:29:20.498Z,25.80
2022-07-25T07:31:47.974Z,25.80
2022-07-25T07:34:16.649Z,25.90
2022-07-25T07:36:44.309Z,26.00
2022-07-25T07:39:11.892Z,26.10
2022-07-25T07:41:39.465Z,26.20
2022-07-25T07:44:06.902Z,26.20
2022-07-25T07:46:34.476Z,26.20
2022-07-25T07:49:02.020Z,26.30
2022-07-25T07:51:29.434Z,26.40
2022-07-25T07:54:15.368Z,26.50
2022-07-25T07:56:42.764Z,26.60
2022-07-25T07:59:10.571Z,26.80
2022-07-25T08:01:38.234Z,26.90
2022-07-25T08:04:05.803Z,27.00
2022-07-25T08:06:33.324Z,27.00
2022-07-25T08:09:00.643Z,27.00
2022-07-25T08:11:28.017Z,27.10
2022-07-25T08:13:55.700Z,27.20
2022-07-25T08:16:23.344Z,27.20
2022-07-25T08:18:50.754Z,27.30
2022-07-25T08:21:18.139Z,27.40
2022-07-25T08:23:47.168Z,27.60
2022-07-25T08:26:14.572Z,27.70
2022-07-25T08:28:42.219Z,27.70
2022-07-25T08:31:10.272Z,27.80
2022-07-25T08:33:38.681Z,27.90
2022-07-25T08:36:06.481Z,28.00
2022-07-25T08:38:35.410Z,28.10
2022-07-25T08:41:03.135Z,28.10
2022-07-25T08:43:33.652Z,28.20
2022-07-25T08:46:01.869Z,28.20
2022-07-25T08:48:29.795Z,28.30
2022-07-25T08:50:57.487Z,28.40
2022-07-25T08:53:34.084Z,28.40
2022-07-25T08:56:12.209Z,28.60
2022-07-25T08:58:43.748Z,28.60
2022-07-25T09:01:12.938Z,28.70
2022-07-25T09:03:41.607Z,28.80
2022-07-25T09:06:19.150Z,28.90
2022-07-25T09:08:57.209Z,29.00
2022-07-25T09:11:32.855Z,29.10
2022-07-25T09:14:14.924Z,29.20
2022-07-25T09:16:44.440Z,29.30
2022-07-25T09:19:17.192Z,29.40
2022-07-25T09:21:46.153Z,29.40
2022-07-25T09:24:18.481Z,29.50
2022-07-25T09:26:49.936Z,29.70
2022-07-25T09:29:18.165Z,29.80
2022-07-25T09:31:46.209Z,29.90
2022-07-25T09:34:16.250Z,30.00
2022-07-25T09:36:56.087Z,30.20
2022-07-25T09:39:45.411Z,30.30
2022-07-25T09:42:33.611Z,30.40
2022-07-25T09:45:12.786Z,30.60
2022-07-25T09:47:54.660Z,30.70
2022-07-25T09:50:22.876Z,30.70
2022-07-25T09:52:51.980Z,30.70
2022-07-25T09:55:20.650Z,30.70
2022-07-25T09:57:49.668Z,30.70
2022-07-25T10:00:20.656Z,30.80
2022-07-25T10:02:53.436Z,30.80
2022-07-25T10:05:26.628Z,30.90
2022-07-25T10:07:54.506Z,31.00
2022-07-25T10:10:32.204Z,31.00
2022-07-25T10:13:10.458Z,31.10
2022-07-25T10:15:41.383Z,31.20
2022-07-25T10:18:08.835Z,31.30
2022-07-25T10:20:36.366Z,31.30
2022-07-25T10:23:04.487Z,31.40
2022-07-25T10:25:31.864Z,31.50
2022-07-25T10:28:02.835Z,31.50
2022-07-25T10:30:37.201Z,31.70
2022-07-25T10:33:10.721Z,31.80
2022-07-25T10:35:38.250Z,31.80
2022-07-25T10:38:06.305Z,31.90
2022-07-25T10:40:44.276Z,32.00
2022-07-25T10:43:18.261Z,32.00
2022-07-25T10:45:52.651Z,32.10
2022-07-25T10:48:25.470Z,32.20
2022-07-25T10:51:00.954Z,32.20
2022-07-25T10:53:39.531Z,32.20
2022-07-25T10:56:15.047Z,32.30
2022-07-25T10:58:50.786Z,32.30
2022-07-25T11:01:28.807Z,32.30
2022-07-25T11:03:57.681Z,32.30
2022-07-25T11:06:38.965Z,32.20
2022-07-25T11:09:23.788Z,32.30
2022-07-25T11:11:58.500Z,32.30
2022-07-25T11:14:41.337Z,32.50
2022-07-25T11:17:20.358Z,32.50
2022-07-25T11:20:01.374Z,32.60
2022-07-25T11:22:29.535Z,32.70
2022-07-25T11:24:57.737Z,32.80
2022-07-25T11:27:27.555Z,32.90
2022-07-25T11:30:16.367Z,32.90
2022-07-25T11:32:55.988Z,32.90
2022-07-25T11:35:28.783Z,32.90
2022-07-25T11:37:56.578Z,33.00
2022-07-25T11:40:25.791Z,33.00
2022-07-25T11:42:55.194Z,33.00
2022-07-25T11:45:26.963Z,33.00
2022-07-25T11:48:05.365Z,33.20
2022-07-25T11:50:33.625Z,33.30
2022-07-25T11:53:05.417Z,33.30
2022-07-25T11:55:36.491Z,33.40
2022-07-25T11:58:04.878Z,33.40
2022-07-25T12:00:35.017Z,33.50
2022-07-25T12:03:12.101Z,33.60
2022-07-25T12:05:43.140Z,33.70
2022-07-25T12:08:11.724Z,33.70
2022-07-25T12:10:39.663Z,33.70
2022-07-25T12:13:08.758Z,33.80
2022-07-25T12:15:40.533Z,33.80
2022-07-25T12:18:12.717Z,33.80
2022-07-25T12:20:43.002Z,33.90
2022-07-25T12:23:11.448Z,33.90
2022-07-25T12:25:43.384Z,33.90
2022-07-25T12:28:11.407Z,34.00
2022-07-25T12:30:39.495Z,34.00
2022-07-25T12:33:06.952Z,34.00
2022-07-25T12:35:34.566Z,34.00
2022-07-25T12:38:01.903Z,34.00
2022-07-25T12:40:29.259Z,34.00
2022-07-25T12:42:57.989Z,33.90
2022-07-25T12:45:25.626Z,33.90
2022-07-25T12:47:52.951Z,34.00
2022-07-25T12:50:20.402Z,34.00
2022-07-25T12:52:47.932Z,33.90
2022-07-25T12:55:17.369Z,34.00
2022-07-25T12:57:45.003Z,34.00
2022-07-25T13:00:14.286Z,34.00
2022-07-25T13:02:41.773Z,34.00
2022-07-25T13:05:09.423Z,34.10
2022-07-25T13:07:37.278Z,34.10
2022-07-25T13:10:05.250Z,34.10
2022-07-25T13:12:32.672Z,34.00
2022-07-25T13:15:00.181Z,34.00
2022-07-25T13:17:28.135Z,34.00
2022-07-25T13:19:55.913Z,34.00
2022-07-25T13:22:23.874Z,34.00
2022-07-25T13:24:51.439Z,34.10
2022-07-25T13:27:19.685Z,34.20
2022-07-25T13:29:47.190Z,34.20
2022-07-25T13:32:14.643Z,34.30
2022-07-25T13:34:42.076Z,34.20
2022-07-25T13:37:09.438Z,34.20
2022-07-25T13:39:38.439Z,34.30
2022-07-25T13:42:06.342Z,34.20
2022-07-25T13:44:33.809Z,34.20
2022-07-25T13:47:01.459Z,34.20
2022-07-25T13:49:28.945Z,34.20
2022-07-25T13:51:56.331Z,34.20
2022-07-25T13:54:23.634Z,34.20
2022-07-25T13:56:50.955Z,34.20
2022-07-25T13:59:21.459Z,34.30
2022-07-25T14:01:49.920Z,34.20
2022-07-25T14:04:17.439Z,34.30
2022-07-25T14:06:44.777Z,34.30
2022-07-25T14:09:12.166Z,34.20
2022-07-25T14:11:39.685Z,34.30
2022-07-25T14:14:07.010Z,34.20
2022-07-25T14:16:34.494Z,34.30
2022-07-25T14:19:02.359Z,34.40
2022-07-25T14:21:30.479Z,34.40
2022-07-25T14:23:57.826Z,34.40
2022-07-25T14:26:25.908Z,34.40
2022-07-25T14:28:53.386Z,34.40
2022-07-25T14:31:21.418Z,34.40
2022-07-25T14:33:48.929Z,34.40
2022-07-25T14:36:16.269Z,34.40
2022-07-25T14:38:43.836Z,34.40
2022-07-25T14:41:13.273Z,34.40
2022-07-25T14:43:41.552Z,34.50
2022-07-25T14:46:09.201Z,34.40
2022-07-25T14:48:37.591Z,34.40
2022-07-25T14:51:05.599Z,34.40
2022-07-25T14:53:33.793Z,34.30
2022-07-25T14:56:02.782Z,34.20
2022-07-25T14:58:30.270Z,34.30
2022-07-25T15:00:57.770Z,34.30
2022-07-25T15:03:25.259Z,34.40
2022-07-25T15:05:52.629Z,34.40
2022-07-25T15:08:19.982Z,34.50
2022-07-25T15:10:47.381Z,34.50
2022-07-25T15:13:30.584Z,34.50
2022-07-25T15:15:59.158Z,34.50
2022-07-25T15:18:26.543Z,34.50
2022-07-25T15:20:55.270Z,34.50
2022-07-25T15:23:25.016Z,34.50
2022-07-25T15:26:08.674Z,34.50
2022-07-25T15:28:37.597Z,34.60
2022-07-25T15:31:05.770Z,34.60
2022-07-25T15:33:33.505Z,34.60
2022-07-25T15:36:00.957Z,34.60
2022-07-25T15:38:29.123Z,34.60
2022-07-25T15:40:57.284Z,34.70
2022-07-25T15:43:25.001Z,34.70
2022-07-25T15:45:52.427Z,34.70
2022-07-25T15:48:19.922Z,34.70
2022-07-25T15:50:48.760Z,34.70
2022-07-25T15:53:16.225Z,34.70
2022-07-25T15:55:43.657Z,34.80
2022-07-25T15:58:11.312Z,34.80
2022-07-25T16:00:39.296Z,34.80
2022-07-25T16:03:06.988Z,34.80
2022-07-25T16:05:34.614Z,34.80
2022-07-25T16:08:02.278Z,34.80
2022-07-25T16:10:32.772Z,34.70
2022-07-25T16:13:00.351Z,34.70
2022-07-25T16:15:27.837Z,34.70
2022-07-25T16:18:01.883Z,34.80
2022-07-25T16:20:31.474Z,34.70
2022-07-25T16:22:59.693Z,34.80
2022-07-25T16:25:27.840Z,34.70
2022-07-25T16:27:55.419Z,34.70
2022-07-25T16:30:22.877Z,34.80
2022-07-25T16:32:50.287Z,34.70
2022-07-25T16:35:17.661Z,34.70
2022-07-25T16:37:45.111Z,34.70
2022-07-25T16:40:12.572Z,34.60
2022-07-25T16:42:39.928Z,34.60
2022-07-25T16:45:07.823Z,34.50
2022-07-25T16:47:35.238Z,34.40
2022-07-25T16:50:02.587Z,34.40
2022-07-25T16:52:29.955Z,34.30
2022-07-25T16:54:57.279Z,34.20
2022-07-25T16:57:25.166Z,34.20
2022-07-25T16:59:53.628Z,34.20
2022-07-25T17:02:27.648Z,34.50
2022-07-25T17:04:57.089Z,34.40
2022-07-25T17:07:25.500Z,34.20
2022-07-25T17:09:53.038Z,34.00
2022-07-25T17:12:20.475Z,33.80
2022-07-25T17:14:47.819Z,33.70
2022-07-25T17:17:15.226Z,33.50
2022-07-25T17:19:42.821Z,33.40
2022-07-25T17:22:10.396Z,33.30
2022-07-25T17:24:37.929Z,33.20
2022-07-25T17:27:05.818Z,33.10
2022-07-25T17:29:33.346Z,33.00
2022-07-25T17:32:00.733Z,33.00
2022-07-25T17:34:28.320Z,33.00
2022-07-25T17:36:55.725Z,32.90
2022-07-25T17:39:23.067Z,32.90
2022-07-25T17:41:52.848Z,32.80
2022-07-25T17:44:20.549Z,32.70
2022-07-25T17:46:50.113Z,32.60
2022-07-25T17:49:17.818Z,32.60
2022-07-25T17:51:45.260Z,32.60
2022-07-25T17:54:12.650Z,32.50
2022-07-25T17:56:40.088Z,32.40
2022-07-25T17:59:08.586Z,32.40
2022-07-25T18:01:36.126Z,32.40
2022-07-25T18:04:03.862Z,32.30
2022-07-25T18:06:31.399Z,32.20
2022-07-25T18:08:58.779Z,32.20
2022-07-25T18:11:26.417Z,32.20
2022-07-25T18:13:53.766Z,32.20
2022-07-25T18:16:21.294Z,32.20
2022-07-25T18:18:48.726Z,32.20
2022-07-25T18:21:16.464Z,32.10
2022-07-25T18:23:43.776Z,32.10
2022-07-25T18:26:11.132Z,31.90
2022-07-25T18:28:38.459Z,31.70
2022-07-25T18:31:06.115Z,31.50
2022-07-25T18:33:33.528Z,31.30
2022-07-25T18:36:05.477Z,31.20
2022-07-25T18:38:34.666Z,30.90
2022-07-25T18:41:27.381Z,30.70
2022-07-25T18:43:49.796Z,30.60
2022-07-25T18:46:17.198Z,30.40
2022-07-25T18:48:44.670Z,30.30
2022-07-25T18:51:12.084Z,30.20
2022-07-25T18:53:39.422Z,30.00
2022-07-25T18:56:07.006Z,29.90
2022-07-25T18:58:34.681Z,29.90
2022-07-25T19:01:05.134Z,29.80
2022-07-25T19:03:34.963Z,29.70
2022-07-25T19:06:03.584Z,29.70
2022-07-25T19:08:32.399Z,29.60
2022-07-25T19:10:59.743Z,29.50
2022-07-25T19:13:48.321Z,29.40
2022-07-25T19:16:15.582Z,29.40
2022-07-25T19:18:43.248Z,29.30
2022-07-25T19:21:10.990Z,29.20
2022-07-25T19:23:38.369Z,29.10
2022-07-25T19:26:06.288Z,29.10
2022-07-25T19:28:34.840Z,29.00
2022-07-25T19:31:02.308Z,29.00
2022-07-25T19:33:35.707Z,29.00
2022-07-25T19:36:04.264Z,28.90
2022-07-25T19:38:32.339Z,28.80
2022-07-25T19:40:59.799Z,28.80
2022-07-25T19:43:27.174Z,28.70
2022-07-25T19:45:54.577Z,28.70
2022-07-25T19:48:23.919Z,28.70
2022-07-25T19:50:52.131Z,28.60
2022-07-25T19:53:19.657Z,28.50
2022-07-25T19:55:47.027Z,28.50
2022-07-25T19:58:14.394Z,28.40
2022-07-25T20:00:41.743Z,28.40
2022-07-25T20:03:09.441Z,28.40
2022-07-25T20:05:36.823Z,28.30
2022-07-25T20:08:04.357Z,28.30
2022-07-25T20:10:31.689Z,28.20
2022-07-25T20:13:01.368Z,28.20
2022-07-25T20:15:29.348Z,28.20
2022-07-25T20:17:56.952Z,28.10
2022-07-25T20:20:25.239Z,28.10
2022-07-25T20:22:52.850Z,28.10
2022-07-25T20:25:20.255Z,28.10
2022-07-25T20:27:49.690Z,28.10
2022-07-25T20:30:17.478Z,28.00
2022-07-25T20:32:44.888Z,28.00
2022-07-25T20:35:12.320Z,27.90
2022-07-25T20:37:39.758Z,27.90
2022-07-25T20:40:08.584Z,27.80
2022-07-25T20:42:37.058Z,27.70
2022-07-25T20:45:07.610Z,27.60
2022-07-25T20:47:35.085Z,27.50
2022-07-25T20:50:02.787Z,27.40
2022-07-25T20:52:31.066Z,27.10
2022-07-25T20:54:58.628Z,27.00
2022-07-25T20:57:26.036Z,26.80
2022-07-25T20:59:53.379Z,26.60
2022-07-25T21:02:20.759Z,26.40
2022-07-25T21:04:48.663Z,26.30
2022-07-25T21:07:16.790Z,26.20
2022-07-25T21:09:45.073Z,26.00
2022-07-25T21:12:13.043Z,25.90
2022-07-25T21:14:40.383Z,25.70
2022-07-25T21:17:08.902Z,25.60
2022-07-25T21:19:36.554Z,25.40
2022-07-25T21:22:04.137Z,25.30
2022-07-25T21:24:32.024Z,25.20
2022-07-25T21:26:59.358Z,25.00
2022-07-25T21:29:26.695Z,25.00
2022-07-25T21:31:54.343Z,24.90
2022-07-25T21:34:21.937Z,24.80
2022-07-25T21:36:49.263Z,24.70
2022-07-25T21:39:16.775Z,24.60
2022-07-25T21:41:44.798Z,24.40
2022-07-25T21:44:14.015Z,24.20
2022-07-25T21:46:41.353Z,24.00
2022-07-25T21:49:40.637Z,23.70
2022-07-25T21:52:13.905Z,23.50
2022-07-25T21:54:44.562Z,23.20
2022-07-25T21:57:13.080Z,23.10
2022-07-25T21:59:44.808Z,22.90
2022-07-25T22:02:12.511Z,22.80
2022-07-25T22:04:39.918Z,22.60
2022-07-25T22:07:07.826Z,22.50
2022-07-25T22:09:35.336Z,22.40
2022-07-25T22:12:02.773Z,22.30
2022-07-25T22:14:30.148Z,22.20
2022-07-25T22:16:57.541Z,22.10
2022-07-25T22:19:24.928Z,22.00
2022-07-25T22:21:52.271Z,21.90
2022-07-25T22:24:19.651Z,21.80
2022-07-25T22:26:47.032Z,21.70
2022-07-25T22:29:14.368Z,21.70
2022-07-25T22:31:41.750Z,21.50
2022-07-25T22:34:09.154Z,21.40
2022-07-25T22:36:36.472Z,21.40
2022-07-25T22:39:04.214Z,21.30
2022-07-25T22:41:31.830Z,21.30
2022-07-25T22:44:00.099Z,21.20
2022-07-25T22:46:28.790Z,21.20
2022-07-25T22:48:56.419Z,21.20
2022-07-25T22:51:23.935Z,21.20
2022-07-25T22:53:51.318Z,21.10
2022-07-25T22:56:18.747Z,21.10
2022-07-25T22:58:47.021Z,21.10
2022-07-25T23:01:17.778Z,21.00
2022-07-25T23:03:45.775Z,21.00
2022-07-25T23:06:13.149Z,20.90
2022-07-25T23:08:40.538Z,20.90
2022-07-25T23:11:08.204Z,20.80
2022-07-25T23:13:35.776Z,20.80
2022-07-25T23:16:03.628Z,20.80
2022-07-25T23:18:31.920Z,20.70
2022-07-25T23:20:59.444Z,20.70
2022-07-25T23:23:26.769Z,20.70
2022-07-25T23:25:54.111Z,20.70
2022-07-25T23:28:21.459Z,20.70
2022-07-25T23:30:49.240Z,20.60
2022-07-25T23:33:16.672Z,20.50
2022-07-25T23:35:44.000Z,20.50
2022-07-25T23:38:11.552Z,20.40
2022-07-25T23:40:38.876Z,20.30
2022-07-25T23:43:06.213Z,20.20
2022-07-25T23:45:33.545Z,20.10
2022-07-25T23:48:01.360Z,20.10
2022-07-25T23:50:28.780Z,20.10
2022-07-25T23:52:56.172Z,20.10
2022-07-25T23:55:23.548Z,20.00
2022-07-25T23:57:53.616Z,20.10
